Time;durP1;ratioP1;P1;durP2;ratioP2;P2;SDS_P1;SDS_P2;PMS_P1;PMS_P2;Temp;Humidity;BMP_temperature;BMP_pressure;BME280_temperature;BME280_humidity;BME280_pressure;Samples;Min_cycle;Max_cycle;Signal;HPM_P1;HPM_P2
2023/07/22 00:01:59;;;;;;;3.50;3.20;;;24.20;44.90;;;;;;4991425;28;20549;-73
2023/07/22 00:05:03;;;;;;;2.80;2.60;;;24.20;44.80;;;;;;4999907;28;20605;-72
2023/07/22 00:07:56;;;;;;;2.80;2.50;;;24.20;44.80;;;;;;4988843;28;20508;-73
2023/07/22 00:10:54;;;;;;;3.20;2.80;;;24.20;44.80;;;;;;4982485;28;20605;-72
2023/07/22 00:14:02;;;;;;;2.33;2.03;;;24.20;44.90;;;;;;4972752;28;20608;-73
2023/07/22 00:17:03;;;;;;;3.00;2.80;;;24.10;44.90;;;;;;4983678;28;20479;-71
2023/07/22 00:19:53;;;;;;;2.90;2.60;;;24.20;44.90;;;;;;5001638;28;20816;-72
2023/07/22 00:25:34;;;;;;;2.67;2.47;;;24.10;44.90;;;;;;4983436;28;20467;-73
2023/07/22 00:28:22;;;;;;;2.83;2.63;;;24.10;44.80;;;;;;4989468;28;20811;-73
2023/07/22 00:31:00;;;;;;;2.90;2.60;;;24.10;45.00;;;;;;5004563;28;20557;-73
2023/07/22 00:34:08;;;;;;;3.03;2.77;;;24.10;44.80;;;;;;4989373;28;20506;-73
2023/07/22 00:37:06;;;;;;;3.37;3.17;;;24.10;44.80;;;;;;4988850;28;21159;-73
2023/07/22 00:39:53;;;;;;;3.20;2.90;;;24.10;44.70;;;;;;4972766;28;21026;-73
2023/07/22 00:42:45;;;;;;;2.90;2.70;;;24.10;44.80;;;;;;5003107;28;21092;-73
2023/07/22 00:45:28;;;;;;;2.50;2.30;;;24.10;44.70;;;;;;5003211;28;20517;-73
2023/07/22 00:48:29;;;;;;;2.53;2.33;;;24.10;44.60;;;;;;5007577;28;20463;-74
2023/07/22 00:51:31;;;;;;;3.20;3.00;;;24.10;44.70;;;;;;5002372;28;20473;-72
2023/07/22 00:54:09;;;;;;;3.20;2.90;;;24.10;44.90;;;;;;4988769;28;20476;-73
2023/07/22 00:57:01;;;;;;;3.23;2.93;;;24.10;44.90;;;;;;4980185;28;20469;-73
2023/07/22 01:00:12;;;;;;;3.00;2.67;;;24.10;44.80;;;;;;4979613;28;20751;-72
2023/07/22 01:03:21;;;;;;;4.13;3.37;;;24.10;44.80;;;;;;5004343;28;20471;-72
2023/07/22 01:06:02;;;;;;;2.93;2.47;;;24.00;44.70;;;;;;5020125;28;20447;-73
2023/07/22 01:09:13;;;;;;;3.03;2.83;;;24.00;44.70;;;;;;5007860;28;20456;-71
2023/07/22 01:12:01;;;;;;;3.37;2.87;;;24.00;44.70;;;;;;4997514;28;20469;-73
2023/07/22 01:14:48;;;;;;;3.10;2.80;;;24.00;44.70;;;;;;5025737;28;20468;-72
2023/07/22 01:17:52;;;;;;;2.60;2.40;;;24.00;44.70;;;;;;4982858;28;20484;-73
2023/07/22 01:21:18;;;;;;;3.07;2.77;;;24.00;44.60;;;;;;4963476;28;20442;-73
2023/07/22 01:24:08;;;;;;;2.77;2.57;;;24.00;44.90;;;;;;4939583;28;20472;-72
2023/07/22 01:27:37;;;;;;;3.07;2.87;;;24.00;44.70;;;;;;5013542;28;20570;-71
2023/07/22 01:30:34;;;;;;;3.70;3.03;;;24.00;44.70;;;;;;5000704;28;20979;-73
2023/07/22 01:33:32;;;;;;;3.10;2.90;;;24.00;44.60;;;;;;4985127;28;20792;-74
2023/07/22 01:36:36;;;;;;;3.40;3.00;;;24.00;44.70;;;;;;4976667;28;20704;-71
2023/07/22 01:39:31;;;;;;;5.73;3.30;;;24.00;44.70;;;;;;4986989;28;20807;-73
2023/07/22 01:42:25;;;;;;;3.27;2.97;;;23.90;44.60;;;;;;5004405;28;20463;-73
2023/07/22 01:51:52;;;;;;;3.63;2.83;;;23.90;44.50;;;;;;5000349;28;20570;-73
2023/07/22 01:54:56;;;;;;;2.83;2.63;;;24.00;44.70;;;;;;5000328;28;21038;-72
2023/07/22 01:57:52;;;;;;;2.80;2.60;;;23.90;44.60;;;;;;4987719;28;20574;-73
2023/07/22 02:00:39;;;;;;;2.90;2.70;;;23.90;44.60;;;;;;5004801;28;20460;-73
2023/07/22 02:03:36;;;;;;;3.30;3.00;;;23.90;44.70;;;;;;5005871;28;20484;-71
2023/07/22 02:06:18;;;;;;;3.37;2.80;;;23.90;43.80;;;;;;5004026;28;20468;-74
2023/07/22 02:09:29;;;;;;;2.60;2.40;;;23.90;44.60;;;;;;5008067;28;20542;-73
2023/07/22 02:12:36;;;;;;;2.53;2.33;;;23.90;44.50;;;;;;5007437;28;20473;-73
2023/07/22 02:15:42;;;;;;;3.27;2.97;;;23.90;44.50;;;;;;5012121;28;20447;-73
2023/07/22 02:18:33;;;;;;;3.60;3.30;;;23.80;44.50;;;;;;5011450;28;20521;-73
2023/07/22 02:21:18;;;;;;;2.70;2.50;;;23.90;44.70;;;;;;4997739;28;20481;-73
2023/07/22 02:24:04;;;;;;;3.27;2.83;;;23.80;44.60;;;;;;5021242;28;20468;-73
2023/07/22 02:26:57;;;;;;;3.63;3.00;;;23.80;44.30;;;;;;5012842;28;20472;-73
2023/07/22 02:30:01;;;;;;;2.80;2.60;;;23.80;44.40;;;;;;5008102;28;21040;-73
2023/07/22 02:32:56;;;;;;;3.40;3.10;;;23.80;44.40;;;;;;5000323;28;20462;-72
2023/07/22 02:35:39;;;;;;;3.27;3.07;;;23.80;44.30;;;;;;5006584;28;20969;-74
2023/07/22 02:38:44;;;;;;;3.47;3.20;;;23.80;44.40;;;;;;5005878;28;20668;-73
2023/07/22 02:41:32;;;;;;;3.20;2.90;;;23.80;44.50;;;;;;5002359;28;20986;-73
2023/07/22 02:44:30;;;;;;;2.93;2.67;;;23.80;44.40;;;;;;4980558;28;20470;-73
2023/07/22 02:47:16;;;;;;;3.23;2.80;;;23.80;44.50;;;;;;4993181;28;20464;-73
2023/07/22 02:50:06;;;;;;;3.03;2.73;;;23.70;44.40;;;;;;5021309;28;20505;-73
2023/07/22 02:52:55;;;;;;;3.87;3.57;;;23.70;44.00;;;;;;5006698;28;20454;-71
2023/07/22 02:55:59;;;;;;;4.20;3.30;;;23.70;44.20;;;;;;4987920;28;20450;-72
2023/07/22 02:58:47;;;;;;;4.03;3.63;;;23.70;44.20;;;;;;5009724;28;20786;-72
2023/07/22 03:01:42;;;;;;;2.93;2.73;;;23.70;44.50;;;;;;4974714;28;20557;-73
2023/07/22 03:04:31;;;;;;;4.97;3.43;;;23.70;44.30;;;;;;4990316;28;20971;-73
2023/07/22 03:07:27;;;;;;;2.93;2.73;;;23.70;44.10;;;;;;4997076;28;20524;-73
2023/07/22 03:10:39;;;;;;;3.70;3.40;;;23.70;44.40;;;;;;5002455;28;20443;-73
2023/07/22 03:16:44;;;;;;;3.40;3.10;;;23.70;44.50;;;;;;5004608;28;20476;-73
2023/07/22 03:19:42;;;;;;;2.87;2.67;;;23.60;44.30;;;;;;5003164;28;20446;-73
2023/07/22 03:22:48;;;;;;;3.73;3.10;;;23.60;44.30;;;;;;5007467;28;20559;-73
2023/07/22 03:26:04;;;;;;;3.10;2.90;;;23.70;44.30;;;;;;5001701;28;20551;-71
2023/07/22 03:29:09;;;;;;;4.33;3.17;;;23.60;44.30;;;;;;5004252;28;21046;-73
2023/07/22 03:32:31;;;;;;;3.37;3.07;;;23.60;44.60;;;;;;4986690;28;20511;-73
2023/07/22 03:38:59;;;;;;;2.93;2.73;;;23.60;44.30;;;;;;4986887;28;20843;-72
2023/07/22 03:41:58;;;;;;;3.73;3.43;;;23.60;44.10;;;;;;5006204;28;20584;-72
2023/07/22 03:45:02;;;;;;;3.07;2.77;;;23.60;44.40;;;;;;5002709;28;20456;-73
2023/07/22 03:47:56;;;;;;;4.23;3.00;;;23.60;44.40;;;;;;5007419;28;20832;-71
2023/07/22 03:50:57;;;;;;;3.50;3.20;;;23.60;44.50;;;;;;5004204;28;20463;-73
2023/07/22 03:54:12;;;;;;;;;;;;;;;;;;;;;
2023/07/22 04:01:04;;;;;;;2.83;2.63;;;23.60;44.50;;;;;;5010192;28;20487;-72
2023/07/22 04:03:47;;;;;;;5.50;3.57;;;23.60;44.50;;;;;;5024928;28;20483;-73
2023/07/22 04:06:32;;;;;;;3.13;2.83;;;23.60;44.40;;;;;;5000887;28;20507;-73
2023/07/22 04:09:35;;;;;;;3.60;2.67;;;23.60;44.50;;;;;;5026963;28;20477;-72
2023/07/22 04:12:38;;;;;;;3.37;3.10;;;23.50;44.50;;;;;;5002905;28;20560;-73
2023/07/22 04:15:17;;;;;;;3.57;3.27;;;23.50;44.50;;;;;;5008610;28;20455;-72
2023/07/22 04:17:55;;;;;;;3.20;2.90;;;23.50;44.40;;;;;;4990834;28;20439;-72
2023/07/22 04:20:37;;;;;;;3.37;3.07;;;23.50;44.50;;;;;;4974672;28;20547;-73
2023/07/22 04:23:26;;;;;;;3.10;2.80;;;23.50;44.50;;;;;;5011081;28;20538;-72
2023/07/22 04:26:28;;;;;;;3.13;2.73;;;23.50;44.60;;;;;;5019080;28;21015;-73
2023/07/22 04:29:15;;;;;;;2.80;2.60;;;23.50;44.70;;;;;;5008943;28;20468;-73
2023/07/22 04:32:12;;;;;;;3.10;2.80;;;23.50;44.50;;;;;;5005591;28;20483;-71
2023/07/22 04:34:56;;;;;;;3.40;3.10;;;23.50;44.60;;;;;;5007234;28;20708;-71
2023/07/22 04:37:58;;;;;;;2.90;2.60;;;23.50;44.80;;;;;;4997992;28;20443;-71
2023/07/22 04:41:23;;;;;;;2.60;2.40;;;23.50;44.80;;;;;;5001145;28;20525;-71
2023/07/22 04:44:23;;;;;;;2.97;2.77;;;23.50;44.80;;;;;;5015127;28;20828;-73
2023/07/22 04:47:15;;;;;;;3.60;3.40;;;23.50;44.80;;;;;;4983837;28;20833;-72
2023/07/22 04:49:57;;;;;;;3.50;3.20;;;23.50;44.90;;;;;;4987672;28;20546;-72
2023/07/22 04:52:59;;;;;;;2.93;2.50;;;23.50;44.90;;;;;;4997759;28;20913;-72
2023/07/22 04:56:35;;;;;;;3.23;2.93;;;23.50;44.80;;;;;;5002628;28;21061;-73
2023/07/22 05:06:01;;;;;;;2.93;2.73;;;23.40;44.70;;;;;;5003797;28;20522;-72
2023/07/22 05:12:16;;;;;;;3.30;3.00;;;23.40;44.80;;;;;;4994553;28;20552;-72
2023/07/22 05:15:15;;;;;;;3.40;3.10;;;23.40;44.80;;;;;;5011162;28;20472;-73
2023/07/22 05:18:07;;;;;;;3.03;2.83;;;23.40;44.80;;;;;;4987564;28;20802;-72
2023/07/22 05:21:31;;;;;;;3.43;3.13;;;23.40;44.80;;;;;;4996820;28;20483;-73
2023/07/22 05:30:22;;;;;;;3.47;3.17;;;23.40;45.00;;;;;;5025719;28;20446;-72
2023/07/22 05:33:45;;;;;;;3.70;3.40;;;23.40;44.90;;;;;;5005774;28;20831;-73
2023/07/22 05:36:47;;;;;;;3.73;3.43;;;23.40;44.80;;;;;;4998699;28;20539;-71
2023/07/22 05:39:58;;;;;;;3.07;2.80;;;23.30;44.70;;;;;;5010763;28;21023;-73
2023/07/22 05:42:51;;;;;;;3.30;3.00;;;23.30;44.70;;;;;;5007067;28;20471;-72
2023/07/22 05:45:54;;;;;;;3.00;2.70;;;23.30;44.80;;;;;;4988831;28;20447;-73
2023/07/22 05:48:39;;;;;;;2.90;2.70;;;23.30;44.80;;;;;;4988595;28;20492;-73
2023/07/22 05:51:32;;;;;;;3.43;3.13;;;23.30;44.90;;;;;;5007930;28;20485;-73
2023/07/22 05:54:35;;;;;;;2.67;2.47;;;23.30;44.80;;;;;;5000723;28;20460;-72
2023/07/22 05:57:28;;;;;;;;;;;;;;;;;;;;;
2023/07/22 06:00:25;;;;;;;2.87;2.67;;;23.30;45.00;;;;;;5008754;28;20455;-73
2023/07/22 06:03:29;;;;;;;2.83;2.63;;;23.30;45.00;;;;;;4992429;28;20957;-71
2023/07/22 06:09:09;;;;;;;2.90;2.70;;;23.30;45.10;;;;;;5012176;28;20495;-73
2023/07/22 06:11:56;;;;;;;2.80;2.60;;;23.30;44.90;;;;;;4982880;28;20499;-73
2023/07/22 06:15:06;;;;;;;3.23;3.03;;;23.20;45.00;;;;;;4999789;28;20835;-72
2023/07/22 06:17:47;;;;;;;3.77;3.47;;;23.20;44.80;;;;;;5000220;28;20476;-73
2023/07/22 06:20:38;;;;;;;3.03;2.73;;;23.30;45.10;;;;;;4994483;28;20722;-73
2023/07/22 06:23:40;;;;;;;3.50;3.20;;;23.20;45.10;;;;;;5003849;28;20511;-73
2023/07/22 06:26:27;;;;;;;2.80;2.60;;;23.20;45.10;;;;;;4996677;28;20537;-73
2023/07/22 06:32:29;;;;;;;2.80;2.60;;;23.20;44.60;;;;;;5021614;28;20537;-71
2023/07/22 06:38:54;;;;;;;3.33;3.00;;;23.20;44.90;;;;;;5000516;28;20450;-71
2023/07/22 06:41:52;;;;;;;3.53;3.23;;;23.20;45.10;;;;;;5004257;28;20991;-71
2023/07/22 06:48:03;;;;;;;3.47;3.17;;;23.20;45.00;;;;;;5021905;28;20473;-73
2023/07/22 06:57:09;;;;;;;4.00;3.70;;;23.20;45.10;;;;;;5006400;28;20664;-71
2023/07/22 06:59:59;;;;;;;3.10;2.90;;;23.10;44.80;;;;;;5025027;28;20745;-73
2023/07/22 07:02:31;;;;;;;9.00;6.43;;;23.10;44.70;;;;;;4985553;28;20814;-74
2023/07/22 07:05:03;;;;;;;5.70;5.20;;;23.10;42.80;;;;;;5018324;28;20748;-73
2023/07/22 07:07:48;;;;;;;5.50;5.00;;;23.00;42.90;;;;;;5020187;28;20467;-73
2023/07/22 07:10:29;;;;;;;5.57;5.07;;;23.00;43.20;;;;;;5013835;28;20466;-73
2023/07/22 07:13:13;;;;;;;5.73;5.17;;;23.00;42.90;;;;;;5023307;28;20459;-73
2023/07/22 07:15:53;;;;;;;4.93;4.43;;;22.90;42.30;;;;;;5023269;28;20441;-73
2023/07/22 07:18:27;;;;;;;5.77;5.27;;;23.00;43.00;;;;;;5010732;28;20443;-73
2023/07/22 07:21:00;;;;;;;5.60;5.00;;;23.00;42.80;;;;;;5027140;28;20523;-73
2023/07/22 07:23:37;;;;;;;5.20;4.70;;;23.00;42.50;;;;;;5029610;28;20465;-73
2023/07/22 07:26:17;;;;;;;5.20;4.70;;;23.00;42.50;;;;;;5025920;28;20446;-72
2023/07/22 07:28:58;;;;;;;6.13;4.70;;;23.00;42.10;;;;;;5008388;28;20442;-74
2023/07/22 07:31:31;;;;;;;4.60;4.13;;;23.00;42.10;;;;;;5004496;28;20493;-73
2023/07/22 07:34:11;;;;;;;5.13;4.73;;;23.00;42.00;;;;;;5020958;28;20481;-74
2023/07/22 07:36:47;;;;;;;4.27;3.90;;;23.10;42.30;;;;;;4989778;28;20929;-72
2023/07/22 07:39:23;;;;;;;4.77;4.27;;;23.00;42.20;;;;;;5003814;28;20438;-73
2023/07/22 07:41:59;;;;;;;6.83;4.70;;;23.00;41.90;;;;;;4985777;28;21075;-73
2023/07/22 07:44:39;;;;;;;6.47;5.87;;;23.10;41.80;;;;;;4987763;28;20474;-72
2023/07/22 07:47:10;;;;;;;6.77;4.80;;;23.00;41.60;;;;;;4995609;28;21088;-72
2023/07/22 07:49:46;;;;;;;6.00;5.40;;;23.00;42.00;;;;;;4992654;28;21041;-72
2023/07/22 07:52:34;;;;;;;6.57;5.67;;;23.00;41.60;;;;;;4983835;28;20454;-73
2023/07/22 07:55:12;;;;;;;7.17;5.50;;;22.90;41.00;;;;;;5005165;28;21014;-72
2023/07/22 07:57:52;;;;;;;7.73;6.27;;;23.00;41.70;;;;;;5021561;28;20441;-71
2023/07/22 08:00:33;;;;;;;5.80;5.27;;;23.00;41.00;;;;;;4998680;28;20680;-73
2023/07/22 08:03:21;;;;;;;6.83;6.00;;;23.00;40.90;;;;;;5019912;28;20504;-71
2023/07/22 08:05:50;;;;;;;6.33;5.47;;;23.00;40.60;;;;;;4998957;28;20492;-71
2023/07/22 08:08:19;;;;;;;6.13;5.37;;;23.10;40.60;;;;;;5002863;28;20455;-73
2023/07/22 08:10:48;;;;;;;5.87;5.37;;;23.20;38.90;;;;;;5006728;28;20564;-71
2023/07/22 08:13:18;;;;;;;6.30;5.70;;;23.30;37.90;;;;;;5012118;28;20549;-71
2023/07/22 08:15:47;;;;;;;6.00;4.80;;;23.20;37.80;;;;;;5015738;28;20466;-73
2023/07/22 08:18:15;;;;;;;4.70;4.30;;;23.10;37.70;;;;;;5005708;28;20448;-72
2023/07/22 08:20:47;;;;;;;7.40;4.93;;;23.00;37.80;;;;;;5004147;28;20512;-73
2023/07/22 08:23:15;;;;;;;6.87;4.07;;;22.80;39.40;;;;;;5008986;28;20514;-73
2023/07/22 08:25:43;;;;;;;5.87;4.80;;;22.70;38.30;;;;;;5003469;28;20452;-72
2023/07/22 08:28:12;;;;;;;7.63;4.63;;;22.70;38.50;;;;;;5016344;28;20604;-73
2023/07/22 08:30:42;;;;;;;7.97;5.10;;;22.70;39.20;;;;;;5008478;28;20539;-73
2023/07/22 08:33:11;;;;;;;5.50;4.70;;;22.70;39.80;;;;;;5005023;28;20480;-72
2023/07/22 08:35:41;;;;;;;4.43;4.03;;;22.70;39.80;;;;;;5026544;28;20477;-71
2023/07/22 08:38:10;;;;;;;4.97;4.43;;;22.70;39.50;;;;;;5026118;28;20432;-72
2023/07/22 08:40:40;;;;;;;4.13;3.73;;;22.70;39.70;;;;;;5027687;28;20533;-72
2023/07/22 08:43:10;;;;;;;7.50;4.73;;;22.70;39.60;;;;;;5025772;28;20502;-71
2023/07/22 08:45:40;;;;;;;5.20;3.97;;;22.70;39.70;;;;;;5028505;28;20479;-71
2023/07/22 08:48:11;;;;;;;4.37;3.97;;;22.70;39.70;;;;;;5028354;28;20505;-73
2023/07/22 08:50:46;;;;;;;5.40;4.27;;;22.70;39.70;;;;;;5029836;28;20462;-73
2023/07/22 08:53:14;;;;;;;4.37;4.07;;;22.70;39.70;;;;;;5012237;28;21388;-73
2023/07/22 08:55:43;;;;;;;4.40;4.00;;;22.70;39.80;;;;;;5008603;28;20816;-72
2023/07/22 08:58:12;;;;;;;5.17;3.93;;;22.70;40.40;;;;;;5024431;28;20790;-73
2023/07/22 09:00:42;;;;;;;4.80;4.40;;;22.70;40.40;;;;;;5040222;28;20521;-71
2023/07/22 09:03:13;;;;;;;3.97;3.57;;;22.70;40.80;;;;;;5030554;28;20492;-72
2023/07/22 09:05:43;;;;;;;5.00;4.60;;;22.80;40.60;;;;;;5008427;28;20445;-71
2023/07/22 09:08:11;;;;;;;5.53;4.20;;;22.80;41.10;;;;;;5028825;28;20429;-72
2023/07/22 09:10:40;;;;;;;4.20;3.83;;;22.70;40.90;;;;;;5009814;28;20471;-73
2023/07/22 09:13:08;;;;;;;4.83;4.37;;;22.80;41.30;;;;;;5009956;28;20472;-71
2023/07/22 09:15:37;;;;;;;3.73;3.43;;;22.80;41.30;;;;;;5027864;28;20499;-72
2023/07/22 09:18:06;;;;;;;4.70;4.30;;;22.80;41.30;;;;;;5009964;28;20451;-73
2023/07/22 09:20:36;;;;;;;4.93;4.43;;;22.80;41.50;;;;;;5011093;28;20430;-71
2023/07/22 09:23:06;;;;;;;4.50;4.10;;;22.80;41.20;;;;;;5022799;28;20479;-71
2023/07/22 09:25:43;;;;;;;4.70;4.20;;;22.80;41.40;;;;;;5028760;28;20461;-72
2023/07/22 09:28:12;;;;;;;5.00;4.00;;;22.80;41.40;;;;;;5027395;28;21362;-71
2023/07/22 09:30:41;;;;;;;4.00;3.60;;;22.80;41.40;;;;;;5028856;28;20464;-72
2023/07/22 09:33:21;;;;;;;3.50;3.20;;;22.80;41.10;;;;;;5027382;28;20477;-72
2023/07/22 09:35:51;;;;;;;3.80;3.43;;;22.80;41.00;;;;;;5029865;28;20434;-71
2023/07/22 09:38:24;;;;;;;4.00;3.70;;;22.80;41.50;;;;;;5010250;28;20549;-73
2023/07/22 09:40:53;;;;;;;3.20;2.90;;;22.80;41.60;;;;;;5031704;28;20462;-72
2023/07/22 09:43:24;;;;;;;4.40;4.00;;;22.80;41.80;;;;;;5016227;28;20462;-72
2023/07/22 09:45:53;;;;;;;4.60;3.60;;;22.80;41.80;;;;;;5010798;28;20445;-72
2023/07/22 09:48:23;;;;;;;4.10;3.70;;;22.80;41.70;;;;;;5028852;28;20553;-72
2023/07/22 09:50:59;;;;;;;3.57;3.27;;;22.80;41.70;;;;;;5026649;28;20473;-71
2023/07/22 09:53:27;;;;;;;4.07;3.77;;;22.80;41.80;;;;;;5004848;28;20487;-73
2023/07/22 09:55:56;;;;;;;3.67;3.37;;;22.80;41.70;;;;;;5018904;28;21011;-71
2023/07/22 09:58:28;;;;;;;4.10;3.80;;;22.80;41.50;;;;;;5007519;28;20462;-71
2023/07/22 10:00:57;;;;;;;3.93;3.53;;;22.80;41.80;;;;;;5022624;28;20457;-71
2023/07/22 10:03:30;;;;;;;6.60;4.17;;;22.80;41.70;;;;;;4990332;28;20815;-73
2023/07/22 10:06:01;;;;;;;3.53;3.23;;;22.80;41.70;;;;;;5009786;28;20782;-73
2023/07/22 10:08:34;;;;;;;3.50;3.20;;;22.80;41.60;;;;;;5000197;28;20540;-65
2023/07/22 10:11:09;;;;;;;4.80;3.70;;;22.80;41.80;;;;;;4994063;28;20475;-67
2023/07/22 10:13:38;;;;;;;5.20;2.93;;;22.90;35.50;;;;;;5001405;28;20474;-66
2023/07/22 10:16:07;;;;;;;4.97;3.00;;;22.80;35.90;;;;;;5020127;28;20448;-64
2023/07/22 10:18:38;;;;;;;3.20;2.90;;;22.80;36.30;;;;;;5005657;28;20449;-66
2023/07/22 10:21:08;;;;;;;3.43;2.90;;;22.80;36.80;;;;;;5003319;28;20449;-66
2023/07/22 10:23:39;;;;;;;4.20;3.80;;;22.70;37.40;;;;;;5004564;28;20922;-64
2023/07/22 10:26:08;;;;;;;3.47;3.17;;;22.70;37.40;;;;;;5005890;28;20617;-66
2023/07/22 10:28:43;;;;;;;3.87;3.43;;;22.70;37.80;;;;;;5006594;28;20553;-65
2023/07/22 10:31:33;;;;;;;3.47;3.17;;;22.80;38.50;;;;;;5013265;28;20473;-64
2023/07/22 10:34:17;;;;;;;3.60;2.87;;;22.80;38.80;;;;;;5016568;28;20458;-66
2023/07/22 10:37:05;;;;;;;4.20;3.30;;;22.80;39.20;;;;;;5022035;28;20480;-65
2023/07/22 10:39:42;;;;;;;3.80;3.03;;;22.80;39.40;;;;;;5028210;28;20442;-66
2023/07/22 10:42:27;;;;;;;5.03;3.43;;;22.80;39.10;;;;;;5033595;28;20473;-65
2023/07/22 10:45:00;;;;;;;3.07;2.80;;;22.80;39.60;;;;;;5027273;28;20449;-65
2023/07/22 10:47:37;;;;;;;3.33;2.70;;;22.80;39.70;;;;;;5006713;28;20793;-64
2023/07/22 10:50:10;;;;;;;3.73;3.37;;;22.80;39.70;;;;;;5012576;28;20806;-65
2023/07/22 10:52:42;;;;;;;3.77;3.20;;;22.80;39.70;;;;;;5017957;28;20931;-70
2023/07/22 10:55:20;;;;;;;3.63;3.33;;;22.80;41.10;;;;;;5013124;28;20514;-71
2023/07/22 10:57:52;;;;;;;3.60;3.30;;;22.80;39.60;;;;;;5014946;28;20442;-71
2023/07/22 11:00:22;;;;;;;3.03;2.80;;;22.80;39.60;;;;;;5026673;28;20783;-72
2023/07/22 11:03:10;;;;;;;2.87;2.67;;;22.80;41.10;;;;;;5009026;28;20871;-72
2023/07/22 11:05:50;;;;;;;2.90;2.70;;;22.80;40.10;;;;;;5003655;28;20434;-67
2023/07/22 11:08:36;;;;;;;2.90;2.70;;;22.80;40.00;;;;;;5031159;28;20468;-67
2023/07/22 11:11:06;;;;;;;3.40;3.10;;;22.80;40.20;;;;;;5022068;28;20578;-68
2023/07/22 11:13:40;;;;;;;2.97;2.73;;;22.80;40.20;;;;;;5021363;28;20466;-68
2023/07/22 11:16:11;;;;;;;3.57;3.27;;;22.80;40.20;;;;;;4999817;28;20909;-66
2023/07/22 11:18:41;;;;;;;3.13;2.73;;;22.80;40.00;;;;;;5021954;28;20454;-66
2023/07/22 11:21:11;;;;;;;2.90;2.70;;;22.80;39.70;;;;;;5009262;28;20535;-73
2023/07/22 11:23:41;;;;;;;3.00;2.80;;;22.80;40.20;;;;;;5004833;28;20465;-65
2023/07/22 11:26:10;;;;;;;10.00;3.70;;;22.90;39.20;;;;;;5011157;28;20903;-67
2023/07/22 11:28:41;;;;;;;4.13;2.97;;;22.80;39.90;;;;;;5005388;28;21048;-65
2023/07/22 11:31:09;;;;;;;4.30;2.83;;;22.80;40.10;;;;;;5006404;28;21088;-71
2023/07/22 11:33:44;;;;;;;2.97;2.67;;;22.90;39.70;;;;;;5018687;28;20458;-72
2023/07/22 11:36:13;;;;;;;4.00;2.73;;;22.90;39.80;;;;;;5024555;28;20561;-71
2023/07/22 11:38:43;;;;;;;3.37;3.00;;;22.80;40.10;;;;;;5004872;28;20444;-72
2023/07/22 11:41:13;;;;;;;2.97;2.57;;;22.80;40.00;;;;;;5006146;28;20880;-66
2023/07/22 11:43:45;;;;;;;8.37;3.10;;;22.80;39.80;;;;;;5008709;28;20544;-71
2023/07/22 11:46:16;;;;;;;2.60;2.40;;;22.90;39.80;;;;;;5013978;28;20478;-73
2023/07/22 11:48:52;;;;;;;3.30;2.67;;;22.90;38.40;;;;;;5016112;28;20458;-73
2023/07/22 11:51:22;;;;;;;4.00;2.77;;;23.00;37.20;;;;;;5003448;28;20478;-71
2023/07/22 11:53:54;;;;;;;3.50;2.67;;;23.00;37.60;;;;;;5022439;28;20862;-66
2023/07/22 11:56:24;;;;;;;3.17;2.67;;;23.10;37.80;;;;;;5001811;28;20480;-68
2023/07/22 11:58:54;;;;;;;3.73;2.70;;;23.10;37.70;;;;;;5013581;28;20484;-68
2023/07/22 12:01:24;;;;;;;3.97;3.07;;;23.10;36.90;;;;;;5016917;28;20470;-71
2023/07/22 12:03:57;;;;;;;4.57;2.90;;;23.10;36.60;;;;;;5006234;28;20473;-72
2023/07/22 12:06:27;;;;;;;2.97;2.57;;;23.10;35.70;;;;;;5026668;28;20480;-67
2023/07/22 12:08:57;;;;;;;4.20;2.60;;;23.10;35.10;;;;;;5007034;28;20542;-65
2023/07/22 12:11:26;;;;;;;5.20;3.20;;;23.20;34.80;;;;;;5031902;28;20505;-66
2023/07/22 12:14:08;;;;;;;3.10;2.50;;;23.10;34.70;;;;;;5000173;28;20473;-72
2023/07/22 12:16:41;;;;;;;2.60;2.30;;;23.10;34.80;;;;;;5009872;28;20532;-73
2023/07/22 12:19:10;;;;;;;3.20;2.87;;;23.20;34.80;;;;;;5031157;28;21420;-73
2023/07/22 12:21:40;;;;;;;3.23;2.93;;;23.20;34.60;;;;;;5020556;28;20529;-65
2023/07/22 12:24:15;;;;;;;3.20;2.60;;;23.20;34.40;;;;;;5007622;28;20478;-73
2023/07/22 12:26:44;;;;;;;3.10;2.80;;;23.20;34.00;;;;;;5008894;28;20464;-65
2023/07/22 12:29:13;;;;;;;2.37;2.17;;;23.20;34.70;;;;;;5007365;28;20742;-65
2023/07/22 12:31:44;;;;;;;2.60;2.40;;;23.20;34.50;;;;;;5024040;28;20997;-66
2023/07/22 12:34:13;;;;;;;3.23;2.60;;;23.10;34.40;;;;;;5028285;28;20470;-67
2023/07/22 12:36:43;;;;;;;3.17;2.77;;;23.10;34.70;;;;;;5024219;28;20489;-71
2023/07/22 12:39:13;;;;;;;2.70;2.50;;;23.10;35.00;;;;;;5025897;28;20950;-71
2023/07/22 12:41:41;;;;;;;2.93;2.03;;;23.10;35.60;;;;;;5030383;28;20462;-66
2023/07/22 12:44:09;;;;;;;2.97;2.77;;;23.00;35.60;;;;;;5016173;28;20470;-70
2023/07/22 12:46:38;;;;;;;3.63;2.13;;;23.00;35.70;;;;;;4998595;28;20486;-70
2023/07/22 12:49:06;;;;;;;2.73;2.30;;;23.00;37.40;;;;;;5019049;28;20533;-72
2023/07/22 12:51:34;;;;;;;3.10;2.80;;;23.00;36.40;;;;;;5009666;28;20473;-71
2023/07/22 12:54:03;;;;;;;4.67;2.47;;;23.00;36.40;;;;;;5033962;28;21212;-64
2023/07/22 12:56:37;;;;;;;3.00;2.63;;;23.00;36.90;;;;;;5005019;28;20474;-64
2023/07/22 12:59:05;;;;;;;5.37;2.57;;;23.00;37.60;;;;;;5010170;28;20457;-71
2023/07/22 13:01:34;;;;;;;2.50;2.30;;;23.00;37.60;;;;;;5025118;28;20486;-72
2023/07/22 13:04:03;;;;;;;2.80;2.13;;;23.10;37.70;;;;;;5021821;28;20501;-72
2023/07/22 13:06:31;;;;;;;3.07;2.77;;;23.00;37.70;;;;;;5023302;28;20481;-70
2023/07/22 13:09:00;;;;;;;3.30;2.73;;;23.10;37.80;;;;;;5025218;28;20543;-66
2023/07/22 13:11:28;;;;;;;3.10;2.70;;;23.00;37.60;;;;;;5024958;28;20876;-73
2023/07/22 13:13:58;;;;;;;3.00;2.80;;;23.10;37.70;;;;;;5025575;28;20491;-72
2023/07/22 13:16:27;;;;;;;3.63;2.60;;;23.10;37.70;;;;;;5027676;28;20487;-70
2023/07/22 13:18:55;;;;;;;2.30;2.10;;;23.10;37.80;;;;;;5029398;28;20443;-71
2023/07/22 13:21:25;;;;;;;3.10;2.80;;;23.10;37.70;;;;;;5024374;28;20470;-71
2023/07/22 13:23:54;;;;;;;3.13;2.93;;;23.10;37.70;;;;;;5024819;28;20466;-71
2023/07/22 13:26:22;;;;;;;2.27;2.10;;;23.10;37.70;;;;;;5005104;28;20477;-71
2023/07/22 13:28:53;;;;;;;2.60;2.40;;;23.10;37.70;;;;;;5003902;28;20471;-71
2023/07/22 13:31:24;;;;;;;3.30;3.00;;;23.10;37.70;;;;;;5027352;28;20451;-71
2023/07/22 13:33:53;;;;;;;2.60;2.40;;;23.10;37.70;;;;;;5010160;28;20489;-65
2023/07/22 13:36:21;;;;;;;2.73;2.53;;;23.10;37.70;;;;;;5019709;28;20557;-72
2023/07/22 13:38:53;;;;;;;4.20;2.97;;;23.10;37.80;;;;;;5004719;28;20450;-65
2023/07/22 13:41:21;;;;;;;2.93;2.50;;;23.10;37.70;;;;;;5008953;28;20496;-65
2023/07/22 13:43:51;;;;;;;2.70;2.50;;;23.10;37.80;;;;;;5027800;28;20449;-72
2023/07/22 13:46:24;;;;;;;3.73;2.90;;;23.10;38.10;;;;;;4997828;28;20505;-64
2023/07/22 13:48:52;;;;;;;2.73;2.53;;;23.10;38.10;;;;;;5003947;28;20464;-65
2023/07/22 13:51:21;;;;;;;3.10;2.80;;;23.10;37.80;;;;;;5001761;28;20518;-65
2023/07/22 13:53:51;;;;;;;2.70;2.50;;;23.10;38.10;;;;;;5017468;28;20560;-65
2023/07/22 13:56:21;;;;;;;2.90;2.60;;;23.20;38.20;;;;;;5017444;28;20824;-65
2023/07/22 13:58:49;;;;;;;2.90;2.70;;;23.20;38.60;;;;;;5004284;28;20419;-72
2023/07/22 14:01:18;;;;;;;2.77;2.30;;;23.20;39.00;;;;;;4992364;28;20445;-73
2023/07/22 14:03:49;;;;;;;2.80;2.60;;;23.20;38.70;;;;;;5025384;28;20470;-71
2023/07/22 14:06:17;;;;;;;2.77;2.57;;;23.20;37.80;;;;;;5005189;28;20476;-65
2023/07/22 14:08:45;;;;;;;4.20;2.70;;;23.20;38.00;;;;;;5012481;28;20440;-64
2023/07/22 14:11:14;;;;;;;2.73;2.53;;;23.20;38.40;;;;;;4972495;28;20453;-65
2023/07/22 14:13:43;;;;;;;3.37;3.07;;;23.20;38.10;;;;;;5002029;28;20483;-64
2023/07/22 14:16:12;;;;;;;3.00;2.70;;;23.20;38.90;;;;;;4987751;28;20457;-65
2023/07/22 14:18:49;;;;;;;3.00;2.70;;;23.20;39.00;;;;;;5009330;28;20794;-64
2023/07/22 14:21:18;;;;;;;2.90;2.70;;;23.20;38.90;;;;;;5020260;28;20437;-71
2023/07/22 14:23:48;;;;;;;2.57;2.37;;;23.20;38.50;;;;;;5004759;28;20472;-72
2023/07/22 14:26:17;;;;;;;2.67;2.47;;;23.20;38.50;;;;;;4994066;28;20470;-73
2023/07/22 14:28:47;;;;;;;3.80;2.70;;;23.20;38.90;;;;;;5022951;28;20444;-66
2023/07/22 14:31:16;;;;;;;3.33;3.03;;;23.20;38.70;;;;;;4998091;28;20826;-64
2023/07/22 14:33:45;;;;;;;4.63;3.30;;;23.20;38.40;;;;;;5024778;28;20998;-65
2023/07/22 14:36:16;;;;;;;3.33;3.03;;;23.30;37.90;;;;;;4971988;28;1227649;-64
2023/07/22 14:38:46;;;;;;;2.37;2.17;;;23.30;38.50;;;;;;5017105;28;20238;-72
2023/07/22 14:41:14;;;;;;;2.90;2.63;;;23.30;38.50;;;;;;4996468;28;20487;-64
2023/07/22 14:43:44;;;;;;;3.70;3.30;;;23.30;38.90;;;;;;5000464;28;20876;-66
2023/07/22 14:46:12;;;;;;;3.00;2.47;;;23.30;38.70;;;;;;4999090;28;20521;-73
2023/07/22 14:48:42;;;;;;;4.23;3.20;;;23.40;39.20;;;;;;5019130;28;20535;-64
2023/07/22 14:51:11;;;;;;;3.70;2.77;;;23.30;38.90;;;;;;4996387;28;20529;-67
2023/07/22 14:53:45;;;;;;;3.10;2.73;;;23.40;39.00;;;;;;5009526;28;20576;-66
2023/07/22 14:56:17;;;;;;;4.03;3.03;;;23.30;38.90;;;;;;5006743;28;20454;-65
2023/07/22 14:58:45;;;;;;;2.93;2.40;;;23.40;39.20;;;;;;5019342;28;20428;-67